Time;durP1;ratioP1;P1;durP2;ratioP2;P2;SDS_P1;SDS_P2;PMS_P1;PMS_P2;Temp;Humidity;BMP_temperature;BMP_pressure;BME280_temperature;BME280_humidity;BME280_pressure;Samples;Min_cycle;Max_cycle;Signal;HPM_P1;HPM_P2
2023/04/07 00:00:40;;;;;;;878.53;794.80;;;7.70;99.90;;;;;;5052318;28;20570;-77
2023/04/07 00:03:08;;;;;;;891.47;805.07;;;7.80;99.90;;;;;;5052115;28;20457;-77
2023/04/07 00:05:35;;;;;;;909.73;823.87;;;7.80;99.90;;;;;;5052215;28;20455;-77
2023/04/07 00:08:02;;;;;;;904.97;818.17;;;7.80;99.90;;;;;;5051938;28;20561;-77
2023/04/07 00:10:29;;;;;;;898.70;813.33;;;7.80;99.90;;;;;;5052479;28;20451;-77
2023/04/07 00:12:56;;;;;;;905.53;820.13;;;7.80;99.90;;;;;;5052246;28;20534;-77
2023/04/07 00:15:22;;;;;;;894.83;807.67;;;7.90;99.90;;;;;;5051832;28;20451;-77
2023/04/07 00:17:49;;;;;;;900.30;813.23;;;7.90;99.90;;;;;;5051898;28;20497;-77
2023/04/07 00:20:17;;;;;;;887.80;800.83;;;7.90;99.90;;;;;;5051929;28;20546;-77
2023/04/07 00:22:44;;;;;;;884.07;796.97;;;8.00;99.90;;;;;;5052342;28;20448;-77
2023/04/07 00:25:11;;;;;;;870.83;785.83;;;8.00;99.90;;;;;;5051934;28;20542;-77
2023/04/07 00:27:40;;;;;;;884.50;797.50;;;8.10;99.90;;;;;;5051963;28;20828;-77
2023/04/07 00:30:08;;;;;;;883.93;798.87;;;8.10;99.90;;;;;;5051991;28;20904;-77
2023/04/07 00:32:36;;;;;;;843.30;761.50;;;8.20;99.90;;;;;;5051636;28;20451;-77
2023/04/07 00:35:02;;;;;;;850.67;767.67;;;8.30;99.90;;;;;;5051459;28;20463;-77
2023/04/07 00:37:31;;;;;;;830.67;753.67;;;8.40;99.90;;;;;;5051910;28;20455;-77
2023/04/07 00:39:58;;;;;;;824.63;747.77;;;8.50;99.90;;;;;;5051862;28;20459;-77
2023/04/07 00:42:25;;;;;;;876.43;792.57;;;8.50;99.90;;;;;;5051824;28;20482;-77
2023/04/07 00:44:53;;;;;;;867.20;784.40;;;8.50;99.90;;;;;;5051637;28;20459;-77
2023/04/07 00:47:22;;;;;;;838.27;759.27;;;8.60;99.90;;;;;;5051555;28;20475;-77
2023/04/07 00:49:49;;;;;;;851.00;770.97;;;8.50;99.90;;;;;;5050566;28;20510;-78
2023/04/07 00:52:17;;;;;;;847.10;768.37;;;8.50;99.90;;;;;;5051736;28;20474;-78
2023/04/07 00:54:46;;;;;;;834.47;753.70;;;8.50;99.90;;;;;;5051550;28;20451;-77
2023/04/07 00:57:12;;;;;;;808.37;730.57;;;8.50;99.90;;;;;;5051554;28;20461;-78
2023/04/07 00:59:40;;;;;;;812.07;731.97;;;8.50;99.90;;;;;;5051776;28;20861;-77
2023/04/07 01:02:14;;;;;;;820.47;739.90;;;8.50;99.90;;;;;;5051464;28;20498;-77
2023/04/07 01:04:46;;;;;;;829.03;741.77;;;8.50;99.90;;;;;;5051647;28;20489;-77
2023/04/07 01:07:18;;;;;;;811.30;726.13;;;8.50;99.90;;;;;;5051654;28;20455;-77
2023/04/07 01:09:55;;;;;;;814.43;732.83;;;8.50;99.90;;;;;;5051524;28;20479;-77
2023/04/07 01:12:28;;;;;;;810.83;731.13;;;8.50;99.90;;;;;;5051302;28;20474;-77
2023/04/07 01:15:00;;;;;;;800.53;723.47;;;8.40;99.90;;;;;;5051438;28;20455;-77
2023/04/07 01:17:28;;;;;;;797.57;718.93;;;8.50;99.90;;;;;;5051501;28;20451;-77
2023/04/07 01:20:02;;;;;;;810.73;732.03;;;8.50;99.90;;;;;;5051436;28;20463;-77
2023/04/07 01:22:33;;;;;;;810.47;732.90;;;8.50;99.90;;;;;;5051321;28;20475;-77
2023/04/07 01:25:23;;;;;;;827.47;744.53;;;8.50;99.90;;;;;;5051245;28;20519;-77
2023/04/07 01:28:00;;;;;;;793.37;719.77;;;8.40;99.90;;;;;;5051240;28;20486;-77
2023/04/07 01:30:32;;;;;;;779.63;709.13;;;8.50;99.90;;;;;;5051497;28;20479;-77
2023/04/07 01:33:00;;;;;;;792.17;721.07;;;8.50;99.90;;;;;;5051228;28;20455;-78
2023/04/07 01:35:33;;;;;;;785.93;715.83;;;8.50;99.90;;;;;;5051143;28;20461;-77
2023/04/07 01:38:01;;;;;;;771.63;700.90;;;8.50;99.90;;;;;;5051382;28;20541;-77
2023/04/07 01:40:29;;;;;;;794.57;721.60;;;8.50;99.90;;;;;;5051370;28;20451;-77
2023/04/07 01:42:57;;;;;;;777.77;708.77;;;8.50;99.90;;;;;;5051315;28;20447;-77
2023/04/07 01:45:25;;;;;;;747.10;682.43;;;8.50;99.90;;;;;;5051132;28;20451;-77
2023/04/07 01:47:57;;;;;;;773.13;706.47;;;8.40;99.90;;;;;;5051018;28;20475;-77
2023/04/07 01:50:25;;;;;;;803.50;732.33;;;8.50;99.90;;;;;;5051357;28;20455;-77
2023/04/07 01:52:53;;;;;;;757.37;694.03;;;8.50;99.90;;;;;;5051141;28;20451;-77
2023/04/07 01:55:22;;;;;;;775.87;704.93;;;8.40;99.90;;;;;;5051185;28;20459;-77
2023/04/07 01:57:49;;;;;;;771.67;703.07;;;8.40;99.90;;;;;;5051875;28;20478;-77
2023/04/07 02:00:16;;;;;;;756.97;691.70;;;8.50;99.90;;;;;;5051562;28;20447;-77
2023/04/07 02:02:46;;;;;;;785.37;714.17;;;8.40;99.90;;;;;;5054188;28;21040;-77
2023/04/07 02:05:20;;;;;;;764.70;698.20;;;8.40;99.90;;;;;;5054607;28;20451;-77
2023/04/07 02:07:52;;;;;;;789.10;714.60;;;8.40;99.90;;;;;;5054325;28;20491;-77
2023/04/07 02:10:23;;;;;;;779.47;706.23;;;8.40;99.90;;;;;;5054716;28;20455;-77
2023/04/07 02:12:51;;;;;;;793.07;718.27;;;8.40;99.90;;;;;;5054330;28;20458;-77
2023/04/07 02:15:19;;;;;;;771.47;701.50;;;8.40;99.90;;;;;;5054377;28;20455;-77
2023/04/07 02:17:51;;;;;;;770.27;698.97;;;8.40;99.90;;;;;;5054041;28;21112;-77
2023/04/07 02:20:21;;;;;;;773.13;704.67;;;8.40;99.90;;;;;;5054524;28;20469;-77
2023/04/07 02:22:48;;;;;;;764.67;698.57;;;8.40;99.90;;;;;;5054101;28;20487;-77
2023/04/07 02:25:22;;;;;;;772.90;703.17;;;8.30;99.90;;;;;;5053650;28;20455;-77
2023/04/07 02:27:50;;;;;;;792.07;717.57;;;8.40;99.90;;;;;;5054336;28;20472;-77
2023/04/07 02:30:17;;;;;;;772.90;704.53;;;8.40;99.90;;;;;;5054336;28;20459;-77
2023/04/07 02:32:44;;;;;;;803.13;726.47;;;8.30;99.90;;;;;;5054113;28;20458;-77
2023/04/07 02:35:14;;;;;;;793.07;719.20;;;8.30;99.90;;;;;;5035910;28;20499;-77
2023/04/07 02:37:42;;;;;;;819.17;739.33;;;8.40;99.90;;;;;;5053889;28;20451;-77
2023/04/07 02:40:09;;;;;;;793.87;717.47;;;8.40;99.90;;;;;;5053898;28;20460;-78
2023/04/07 02:42:37;;;;;;;771.90;698.50;;;8.30;99.90;;;;;;5054132;28;20490;-77
2023/04/07 02:45:04;;;;;;;754.73;685.33;;;8.30;99.90;;;;;;5053701;28;20456;-77
2023/04/07 02:47:30;;;;;;;755.17;686.17;;;8.40;99.90;;;;;;5053725;28;20521;-77
2023/04/07 02:49:57;;;;;;;754.13;687.33;;;8.40;99.90;;;;;;5053794;28;20452;-77
2023/04/07 02:52:24;;;;;;;739.03;676.67;;;8.30;99.90;;;;;;5053497;28;20454;-77
2023/04/07 02:54:53;;;;;;;764.37;693.27;;;8.30;99.90;;;;;;5035514;28;20459;-77
2023/04/07 02:57:20;;;;;;;762.00;693.83;;;8.40;99.90;;;;;;5053794;28;20546;-77
2023/04/07 02:59:47;;;;;;;757.37;693.27;;;8.30;99.90;;;;;;5053318;28;21005;-77
2023/04/07 03:02:14;;;;;;;762.33;697.43;;;8.40;99.90;;;;;;5053126;28;21002;-77
2023/04/07 03:04:41;;;;;;;774.27;706.07;;;8.30;99.90;;;;;;5053213;28;20529;-77
2023/04/07 03:07:08;;;;;;;772.97;705.77;;;8.30;99.90;;;;;;5053264;28;20451;-77
2023/04/07 03:09:35;;;;;;;760.47;699.20;;;8.30;99.90;;;;;;5053277;28;20468;-77
2023/04/07 03:12:04;;;;;;;736.70;678.00;;;8.30;99.90;;;;;;5052534;28;20451;-77
2023/04/07 03:14:31;;;;;;;729.73;667.93;;;8.20;99.90;;;;;;5053079;28;20490;-77
2023/04/07 03:16:57;;;;;;;716.67;657.77;;;8.30;99.90;;;;;;5053186;28;20451;-77
2023/04/07 03:19:24;;;;;;;745.77;681.73;;;8.20;99.90;;;;;;5052967;28;20477;-77
2023/04/07 03:21:51;;;;;;;745.10;681.83;;;8.20;99.90;;;;;;5052891;28;20483;-77
2023/04/07 03:24:18;;;;;;;740.37;677.40;;;8.20;99.90;;;;;;5053065;28;20454;-77
2023/04/07 03:26:45;;;;;;;731.50;668.50;;;8.20;99.90;;;;;;5053068;28;20462;-77
2023/04/07 03:29:16;;;;;;;732.10;669.27;;;8.10;99.90;;;;;;5053033;28;20617;-77
2023/04/07 03:31:43;;;;;;;746.67;684.87;;;8.10;99.90;;;;;;5052905;28;20458;-77
2023/04/07 03:34:10;;;;;;;732.93;673.53;;;8.20;99.90;;;;;;5052483;28;20831;-77
2023/04/07 03:36:36;;;;;;;734.73;676.07;;;8.10;99.90;;;;;;5052975;28;20481;-77
2023/04/07 03:39:03;;;;;;;717.43;663.97;;;8.10;99.90;;;;;;5052365;28;20478;-77
2023/04/07 03:41:30;;;;;;;707.60;654.73;;;8.20;99.90;;;;;;5052683;28;20476;-77
2023/04/07 03:43:58;;;;;;;749.87;686.40;;;8.10;99.90;;;;;;5052566;28;20459;-77
2023/04/07 03:46:26;;;;;;;734.80;673.33;;;8.10;99.90;;;;;;5052706;28;20485;-77
2023/04/07 03:48:53;;;;;;;760.70;693.00;;;8.10;99.90;;;;;;5052218;28;20471;-77
2023/04/07 03:51:20;;;;;;;775.93;705.20;;;8.10;99.90;;;;;;5052590;28;20892;-77
2023/04/07 03:53:47;;;;;;;780.33;709.73;;;8.00;99.90;;;;;;5052573;28;20456;-77
2023/04/07 03:56:14;;;;;;;781.00;708.90;;;8.00;99.90;;;;;;5052263;28;20454;-77
2023/04/07 03:58:41;;;;;;;766.67;698.00;;;8.10;99.90;;;;;;5052186;28;20475;-77
2023/04/07 04:01:08;;;;;;;768.23;699.67;;;8.10;99.90;;;;;;5052147;28;20455;-77
2023/04/07 04:03:36;;;;;;;771.60;698.47;;;8.10;99.90;;;;;;5034269;28;20479;-77
2023/04/07 04:06:03;;;;;;;762.50;689.67;;;8.00;99.90;;;;;;5052262;28;20455;-77
2023/04/07 04:08:31;;;;;;;780.77;706.63;;;8.10;99.90;;;;;;5052555;28;20510;-77
2023/04/07 04:10:57;;;;;;;781.90;707.27;;;8.10;99.90;;;;;;5052142;28;20458;-77
2023/04/07 04:13:24;;;;;;;787.00;713.27;;;8.00;99.90;;;;;;5052098;28;20447;-77
2023/04/07 04:15:51;;;;;;;785.53;712.00;;;8.00;99.90;;;;;;5051765;28;20451;-77
2023/04/07 04:18:19;;;;;;;784.37;710.07;;;8.00;99.90;;;;;;5052166;28;20475;-77
2023/04/07 04:20:47;;;;;;;795.90;721.60;;;8.00;99.90;;;;;;5052121;28;20452;-77
2023/04/07 04:23:14;;;;;;;790.17;716.53;;;8.00;99.90;;;;;;5033991;28;20497;-77
2023/04/07 04:25:41;;;;;;;800.67;726.80;;;8.00;99.90;;;;;;5051992;28;20837;-77
2023/04/07 04:28:08;;;;;;;785.47;712.87;;;8.00;99.90;;;;;;5051805;28;20558;-77
2023/04/07 04:30:35;;;;;;;793.57;719.03;;;8.00;99.90;;;;;;5051716;28;20516;-77
2023/04/07 04:33:02;;;;;;;775.60;704.67;;;7.90;99.90;;;;;;5051866;28;20455;-77
2023/04/07 04:35:29;;;;;;;756.07;690.23;;;7.90;99.90;;;;;;5051581;28;20456;-77
2023/04/07 04:37:58;;;;;;;758.10;690.20;;;7.90;99.90;;;;;;5033798;28;20479;-77
2023/04/07 04:40:24;;;;;;;757.67;690.90;;;7.80;99.90;;;;;;5051801;28;20451;-77
2023/04/07 04:42:52;;;;;;;762.70;694.90;;;7.80;99.90;;;;;;5033723;28;20475;-77
2023/04/07 04:45:19;;;;;;;765.13;696.87;;;7.80;99.90;;;;;;5051752;28;20827;-77
2023/04/07 04:47:46;;;;;;;749.23;683.80;;;7.90;99.90;;;;;;5051544;28;20482;-77
2023/04/07 04:50:13;;;;;;;744.03;679.60;;;7.80;99.90;;;;;;5051690;28;20458;-77
2023/04/07 04:52:40;;;;;;;746.00;680.90;;;7.80;99.90;;;;;;5051761;28;20458;-77
2023/04/07 04:55:09;;;;;;;733.20;671.70;;;7.80;99.90;;;;;;5051402;28;20455;-77
2023/04/07 04:57:36;;;;;;;743.63;679.27;;;7.80;99.90;;;;;;5051362;28;20459;-77
2023/04/07 05:00:04;;;;;;;725.90;666.80;;;7.80;99.90;;;;;;5051461;28;21009;-76
2023/04/07 05:02:30;;;;;;;744.10;682.80;;;7.80;99.90;;;;;;5050870;28;20471;-77
2023/04/07 05:04:57;;;;;;;746.60;684.00;;;7.80;99.90;;;;;;5051193;28;20447;-76
2023/04/07 05:07:24;;;;;;;741.17;678.53;;;7.80;99.90;;;;;;5048562;28;20460;-77
2023/04/07 05:09:51;;;;;;;742.50;681.70;;;7.80;99.90;;;;;;5033301;28;20451;-76
2023/04/07 05:12:19;;;;;;;729.57;668.00;;;7.80;99.90;;;;;;5051199;28;20482;-76
2023/04/07 05:14:46;;;;;;;727.50;666.07;;;7.80;99.90;;;;;;5048241;28;20447;-77
2023/04/07 05:17:13;;;;;;;737.80;674.40;;;7.80;99.90;;;;;;5050991;28;21158;-77
2023/04/07 05:19:40;;;;;;;725.77;663.00;;;7.80;99.90;;;;;;5050779;28;20558;-76
2023/04/07 05:22:07;;;;;;;726.00;663.07;;;7.80;99.90;;;;;;5052412;28;20854;-77
2023/04/07 05:24:34;;;;;;;726.63;663.37;;;7.80;99.90;;;;;;5051739;28;20455;-77
2023/04/07 05:27:01;;;;;;;724.13;661.23;;;7.80;99.90;;;;;;5050954;28;20455;-77
2023/04/07 05:29:30;;;;;;;729.50;666.80;;;7.80;99.90;;;;;;5050795;28;21002;-77
2023/04/07 05:31:56;;;;;;;728.23;665.33;;;7.80;99.90;;;;;;5051034;28;20447;-77
2023/04/07 05:34:23;;;;;;;724.10;660.03;;;7.80;99.90;;;;;;5051158;28;20469;-77
2023/04/07 05:36:50;;;;;;;712.13;649.60;;;7.80;99.90;;;;;;5054720;28;20538;-76
2023/04/07 05:39:17;;;;;;;684.50;628.17;;;7.80;99.90;;;;;;5054786;28;20477;-77
2023/04/07 05:41:47;;;;;;;687.23;628.87;;;7.80;99.90;;;;;;5055159;28;20457;-77
2023/04/07 05:44:14;;;;;;;694.83;635.57;;;7.80;99.90;;;;;;5054967;28;20546;-77
2023/04/07 05:46:42;;;;;;;682.40;627.13;;;7.80;99.90;;;;;;5054139;28;20459;-77
2023/04/07 05:49:09;;;;;;;685.43;631.00;;;7.80;99.90;;;;;;5053722;28;20497;-77
2023/04/07 05:51:36;;;;;;;694.43;637.17;;;7.80;99.90;;;;;;5052432;28;20486;-76
2023/04/07 05:54:03;;;;;;;687.40;631.77;;;7.80;99.90;;;;;;5054715;28;20447;-76
2023/04/07 05:56:32;;;;;;;673.20;620.00;;;7.80;99.90;;;;;;5054691;28;20459;-77
2023/04/07 05:59:00;;;;;;;685.57;631.77;;;7.80;99.90;;;;;;5054104;28;20478;-77
2023/04/07 06:01:27;;;;;;;692.80;637.67;;;7.80;99.90;;;;;;5054579;28;20549;-76
2023/04/07 06:03:57;;;;;;;697.13;640.33;;;7.80;99.90;;;;;;5036301;28;20521;-77
2023/04/07 06:06:25;;;;;;;703.97;644.77;;;7.90;99.90;;;;;;5054307;28;20494;-77
2023/04/07 06:08:52;;;;;;;701.07;643.73;;;7.90;99.90;;;;;;5036465;28;20978;-77
2023/04/07 06:11:19;;;;;;;683.30;630.97;;;7.80;99.90;;;;;;5054163;28;20989;-77
2023/04/07 06:13:46;;;;;;;704.10;647.57;;;7.80;99.90;;;;;;5054373;28;21016;-77
2023/04/07 06:16:13;;;;;;;696.17;638.00;;;7.80;99.90;;;;;;5054347;28;20976;-77
2023/04/07 06:18:40;;;;;;;693.67;634.77;;;7.90;99.90;;;;;;5054125;28;20566;-77
2023/04/07 06:21:09;;;;;;;707.77;648.60;;;7.90;99.90;;;;;;5054214;28;20461;-76
2023/04/07 06:23:38;;;;;;;714.27;654.60;;;7.90;99.90;;;;;;5054179;28;20483;-77
2023/04/07 06:26:05;;;;;;;688.10;629.07;;;7.90;99.90;;;;;;5054226;28;20841;-76
2023/04/07 06:28:32;;;;;;;683.23;627.67;;;7.80;99.90;;;;;;5054133;28;20475;-76
2023/04/07 06:30:59;;;;;;;677.13;623.90;;;7.90;99.90;;;;;;5054235;28;20454;-77
2023/04/07 06:33:27;;;;;;;677.17;623.13;;;7.80;99.90;;;;;;5053414;28;20459;-77
2023/04/07 06:35:55;;;;;;;654.93;609.63;;;7.90;99.90;;;;;;5036138;28;20542;-77
2023/04/07 06:38:23;;;;;;;678.10;623.43;;;7.90;99.90;;;;;;5054002;28;20851;-76
2023/04/07 06:40:51;;;;;;;683.17;627.00;;;7.90;99.90;;;;;;5054173;28;20796;-76
2023/04/07 06:43:18;;;;;;;675.13;618.53;;;8.00;99.90;;;;;;5053699;28;20570;-77
2023/04/07 06:45:45;;;;;;;670.37;612.27;;;8.00;99.90;;;;;;5053674;28;20965;-76
2023/04/07 06:48:12;;;;;;;668.03;609.67;;;8.00;99.90;;;;;;5052452;28;20525;-76
2023/04/07 06:50:39;;;;;;;671.83;611.43;;;8.00;99.90;;;;;;5052158;28;20498;-76
2023/04/07 06:53:06;;;;;;;668.73;611.77;;;8.00;99.90;;;;;;5053157;28;20599;-77
2023/04/07 06:55:34;;;;;;;662.50;604.67;;;8.10;99.90;;;;;;5053267;28;20451;-77
2023/04/07 06:58:01;;;;;;;667.33;612.10;;;8.10;99.90;;;;;;5035030;28;20598;-77
2023/04/07 07:00:29;;;;;;;682.13;621.20;;;8.20;99.90;;;;;;5052736;28;20451;-72
2023/04/07 07:02:57;;;;;;;677.53;619.93;;;8.20;99.90;;;;;;5053102;28;20579;-77
2023/04/07 07:05:25;;;;;;;682.03;622.17;;;8.20;99.90;;;;;;5052999;28;20451;-77
2023/04/07 07:07:51;;;;;;;676.67;619.43;;;8.30;99.90;;;;;;5052834;28;20475;-77
2023/04/07 07:10:19;;;;;;;685.30;626.40;;;8.30;99.90;;;;;;5052860;28;20451;-77
2023/04/07 07:12:47;;;;;;;689.67;629.47;;;8.30;99.90;;;;;;5052839;28;20451;-77
2023/04/07 07:15:14;;;;;;;683.57;628.20;;;8.40;99.90;;;;;;5052628;28;20838;-77
2023/04/07 07:17:41;;;;;;;683.90;626.07;;;8.40;99.90;;;;;;5052596;28;20455;-77
2023/04/07 07:20:10;;;;;;;683.63;626.63;;;8.50;99.90;;;;;;5053076;28;20474;-77
2023/04/07 07:22:38;;;;;;;685.53;628.20;;;8.50;99.90;;;;;;5053111;28;20455;-77
2023/04/07 07:25:06;;;;;;;684.70;628.93;;;8.60;99.90;;;;;;5052730;28;20538;-77
2023/04/07 07:27:33;;;;;;;686.17;629.53;;;8.60;99.90;;;;;;5034984;28;20455;-78
2023/04/07 07:30:01;;;;;;;681.27;625.27;;;8.50;99.90;;;;;;5052670;28;20455;-77
2023/04/07 07:32:28;;;;;;;688.57;633.53;;;8.60;99.90;;;;;;5052885;28;20460;-78
2023/04/07 07:34:55;;;;;;;695.10;638.90;;;8.60;99.90;;;;;;5052641;28;20548;-77
2023/04/07 07:37:21;;;;;;;683.63;628.20;;;8.60;99.90;;;;;;5052801;28;20546;-77
2023/04/07 07:39:49;;;;;;;682.60;629.67;;;8.60;99.90;;;;;;5052475;28;20483;-77
2023/04/07 07:42:16;;;;;;;699.10;643.37;;;8.60;99.90;;;;;;5034880;28;20967;-77
2023/04/07 07:44:43;;;;;;;694.70;639.07;;;8.60;99.90;;;;;;5052489;28;20483;-76
2023/04/07 07:47:11;;;;;;;691.00;634.60;;;8.70;99.90;;;;;;5052914;28;20485;-77
2023/04/07 07:49:40;;;;;;;690.43;635.43;;;8.70;99.90;;;;;;5052482;28;21067;-77
2023/04/07 07:52:07;;;;;;;699.80;644.77;;;8.70;99.90;;;;;;5052432;28;20455;-77
2023/04/07 07:54:34;;;;;;;690.23;636.77;;;8.90;99.90;;;;;;5052641;28;20797;-77
2023/04/07 07:57:01;;;;;;;689.80;635.63;;;8.90;99.90;;;;;;5052880;28;20538;-77
2023/04/07 07:59:31;;;;;;;691.83;638.93;;;9.00;99.90;;;;;;5050635;28;20507;-77
2023/04/07 08:01:58;;;;;;;682.83;632.00;;;9.00;99.90;;;;;;5052102;28;20538;-77
2023/04/07 08:04:29;;;;;;;689.50;637.90;;;9.10;99.90;;;;;;5051759;28;20480;-77
2023/04/07 08:06:57;;;;;;;676.50;626.00;;;9.30;99.90;;;;;;5051789;28;20470;-78
2023/04/07 08:09:25;;;;;;;658.87;613.30;;;9.50;99.90;;;;;;5051769;28;20566;-77
2023/04/07 08:11:53;;;;;;;550.60;524.10;;;9.60;99.90;;;;;;5052003;28;20459;-77
2023/04/07 08:14:20;;;;;;;470.27;451.63;;;9.60;99.90;;;;;;5051934;28;20534;-77
2023/04/07 08:16:48;;;;;;;555.63;531.40;;;9.50;99.90;;;;;;5052174;28;20542;-77
2023/04/07 08:19:15;;;;;;;451.57;434.27;;;9.60;99.90;;;;;;5051980;28;20475;-77
2023/04/07 08:21:43;;;;;;;555.00;532.37;;;9.60;99.90;;;;;;5052272;28;20948;-78
2023/04/07 08:24:10;;;;;;;474.03;456.83;;;9.70;99.90;;;;;;5051966;28;20481;-78
2023/04/07 08:26:37;;;;;;;418.73;404.07;;;9.60;99.90;;;;;;5052196;28;20457;-77
2023/04/07 08:29:04;;;;;;;404.97;391.07;;;9.60;99.90;;;;;;5051715;28;20483;-77
2023/04/07 08:31:31;;;;;;;444.80;429.13;;;9.50;99.90;;;;;;5052089;28;20487;-78
2023/04/07 08:33:58;;;;;;;426.70;411.97;;;9.70;99.90;;;;;;5051453;28;20530;-78
2023/04/07 08:36:26;;;;;;;424.93;409.33;;;9.60;99.90;;;;;;5052023;28;20456;-78
2023/04/07 08:38:54;;;;;;;366.03;353.20;;;9.70;99.90;;;;;;5051952;28;20468;-78
2023/04/07 08:41:30;;;;;;;367.83;355.13;;;9.60;99.90;;;;;;5052119;28;20542;-78
2023/04/07 08:43:58;;;;;;;344.80;332.90;;;9.70;99.90;;;;;;5051723;28;20471;-78
2023/04/07 08:46:26;;;;;;;448.50;432.83;;;9.70;99.90;;;;;;5051443;28;20481;-78
2023/04/07 08:48:55;;;;;;;411.63;397.47;;;9.90;99.90;;;;;;5051523;28;20545;-78
2023/04/07 08:51:28;;;;;;;449.00;431.53;;;10.00;99.90;;;;;;5051671;28;20955;-78
2023/04/07 08:54:05;;;;;;;316.20;305.70;;;10.20;99.90;;;;;;5051844;28;20458;-78
2023/04/07 08:56:33;;;;;;;148.73;142.93;;;10.20;99.90;;;;;;5051645;28;20876;-78
2023/04/07 08:59:01;;;;;;;152.83;147.00;;;10.20;99.90;;;;;;5051478;28;20545;-78
2023/04/07 09:01:32;;;;;;;55.33;51.53;;;10.20;99.90;;;;;;5050415;28;20455;-78
2023/04/07 09:03:59;;;;;;;142.60;136.47;;;10.10;99.90;;;;;;5051534;28;20575;-78
2023/04/07 09:06:27;;;;;;;208.67;200.33;;;10.20;99.90;;;;;;5051612;28;20457;-78
2023/04/07 09:09:00;;;;;;;151.50;145.57;;;10.10;99.90;;;;;;5051372;28;21046;-78
2023/04/07 09:11:26;;;;;;;137.40;132.00;;;9.90;99.90;;;;;;5054457;28;20526;-78
2023/04/07 09:13:54;;;;;;;123.77;118.60;;;9.70;99.90;;;;;;5055823;28;20447;-78
2023/04/07 09:16:22;;;;;;;361.93;349.57;;;9.40;99.90;;;;;;5055754;28;20529;-78
2023/04/07 09:18:49;;;;;;;468.63;451.33;;;9.30;99.90;;;;;;5055537;28;20686;-78
2023/04/07 09:21:16;;;;;;;612.60;586.03;;;9.20;99.90;;;;;;5055511;28;20482;-78
2023/04/07 09:23:45;;;;;;;666.77;634.33;;;9.10;99.90;;;;;;5055318;28;20498;-78
2023/04/07 09:26:23;;;;;;;669.77;635.37;;;9.10;99.90;;;;;;5055290;28;20864;-77
2023/04/07 09:28:53;;;;;;;687.27;649.70;;;9.00;99.90;;;;;;5055257;28;20483;-78
2023/04/07 09:31:21;;;;;;;522.87;501.63;;;9.00;99.90;;;;;;5055389;28;20451;-78
2023/04/07 09:33:48;;;;;;;638.83;608.13;;;8.90;99.90;;;;;;5054324;28;20832;-78
2023/04/07 09:36:15;;;;;;;689.37;649.17;;;8.90;99.90;;;;;;5054988;28;20458;-78
2023/04/07 09:38:45;;;;;;;692.97;652.87;;;8.90;99.90;;;;;;5054893;28;20492;-77
2023/04/07 09:41:15;;;;;;;627.87;598.37;;;8.90;99.90;;;;;;5055341;28;20455;-77
2023/04/07 09:43:45;;;;;;;598.03;570.20;;;8.90;99.90;;;;;;5055143;28;20548;-78
2023/04/07 09:46:14;;;;;;;643.87;610.20;;;8.90;99.90;;;;;;5054828;28;20994;-78
2023/04/07 09:48:45;;;;;;;665.53;627.40;;;9.00;99.90;;;;;;5054714;28;20475;-78
2023/04/07 09:51:13;;;;;;;674.50;635.80;;;9.00;99.90;;;;;;5054794;28;20462;-78
2023/04/07 09:53:46;;;;;;;680.30;639.87;;;9.00;99.90;;;;;;5054913;28;20472;-78
2023/04/07 09:56:15;;;;;;;703.77;656.50;;;8.90;99.90;;;;;;5054541;28;20463;-78
2023/04/07 09:58:45;;;;;;;669.90;633.33;;;8.90;99.90;;;;;;5054201;28;20557;-78
2023/04/07 10:01:15;;;;;;;682.27;641.60;;;8.80;99.90;;;;;;5054906;28;20477;-77
2023/04/07 10:03:42;;;;;;;681.17;640.47;;;8.80;99.90;;;;;;5054777;28;20974;-78
2023/04/07 10:06:10;;;;;;;681.10;638.63;;;8.80;99.90;;;;;;5054451;28;20982;-78
2023/04/07 10:08:41;;;;;;;678.10;635.97;;;8.80;99.90;;;;;;5053074;28;20475;-78
2023/04/07 10:11:11;;;;;;;651.10;612.47;;;8.90;99.90;;;;;;5054539;28;20542;-87
2023/04/07 10:13:46;;;;;;;601.40;569.67;;;9.10;99.90;;;;;;5054077;28;20509;-83
2023/04/07 10:16:13;;;;;;;625.30;590.60;;;9.40;99.90;;;;;;5037495;28;20454;-78
2023/04/07 10:18:41;;;;;;;559.47;534.07;;;9.60;99.90;;;;;;5054376;28;20475;-78
2023/04/07 10:21:09;;;;;;;526.20;504.60;;;9.80;99.90;;;;;;5054112;28;20444;-78
2023/04/07 10:23:49;;;;;;;332.13;320.17;;;9.90;99.90;;;;;;5054162;28;20478;-78
2023/04/07 10:26:18;;;;;;;399.87;385.53;;;9.80;99.90;;;;;;5054177;28;20542;-78
2023/04/07 10:28:50;;;;;;;273.60;263.87;;;9.70;99.90;;;;;;5054188;28;20566;-77
2023/04/07 10:31:18;;;;;;;306.40;296.00;;;9.60;99.90;;;;;;5054162;28;21047;-78
2023/04/07 10:33:47;;;;;;;285.57;275.47;;;9.50;99.90;;;;;;5053945;28;20951;-78
2023/04/07 10:36:15;;;;;;;375.17;362.27;;;9.30;99.90;;;;;;5054081;28;20813;-77
2023/04/07 10:38:42;;;;;;;315.97;305.00;;;9.30;99.90;;;;;;5053842;28;20471;-78
2023/04/07 10:41:35;;;;;;;400.53;386.43;;;9.30;99.90;;;;;;5053693;28;20978;-77
2023/04/07 10:44:03;;;;;;;422.47;407.10;;;9.20;99.90;;;;;;5053575;28;20990;-78
2023/04/07 10:47:04;;;;;;;435.87;420.07;;;9.30;99.90;;;;;;5053466;28;20470;-78
2023/04/07 10:49:32;;;;;;;354.00;342.63;;;9.30;99.90;;;;;;5053653;28;20524;-78
2023/04/07 10:52:24;;;;;;;151.43;145.23;;;9.40;99.90;;;;;;5053626;28;20478;-78
2023/04/07 10:55:24;;;;;;;474.02;456.00;;;9.60;99.90;;;;;;5044019;28;20928;-77
2023/04/07 10:58:15;;;;;;;209.67;201.83;;;9.90;99.90;;;;;;5053487;28;20221;-78
2023/04/07 11:01:21;;;;;;;253.00;244.30;;;10.10;99.90;;;;;;5053672;28;20475;-77
2023/04/07 11:03:56;;;;;;;135.87;130.83;;;10.50;99.90;;;;;;5052863;28;21041;-78
2023/04/07 11:06:23;;;;;;;76.53;72.83;;;10.40;99.90;;;;;;5053548;28;20447;-78
2023/04/07 11:08:50;;;;;;;40.07;37.40;;;10.60;99.90;;;;;;5052988;28;20479;-75
2023/04/07 11:11:21;;;;;;;41.47;38.23;;;10.60;99.90;;;;;;5053393;28;20463;-78
2023/04/07 11:13:49;;;;;;;23.80;21.23;;;10.50;99.90;;;;;;5052805;28;20458;-78
2023/04/07 11:16:19;;;;;;;32.93;30.83;;;10.70;99.90;;;;;;5053231;28;20201;-78
2023/04/07 11:18:47;;;;;;;23.85;21.75;;;10.90;99.90;;;;;;5052677;28;20451;-78
2023/04/07 11:21:18;;;;;;;16.90;15.43;;;11.00;99.90;;;;;;5053510;28;20205;-78
2023/04/07 11:23:46;;;;;;;14.60;11.45;;;11.10;99.90;;;;;;5053109;28;20462;-79
2023/04/07 11:26:14;;;;;;;13.20;11.87;;;11.10;99.90;;;;;;5053253;28;20221;-78
2023/04/07 11:28:46;;;;;;;19.17;9.03;;;11.10;99.90;;;;;;5052905;28;21010;-78
2023/04/07 11:31:21;;;;;;;15.33;10.60;;;11.10;99.90;;;;;;5053061;28;21042;-78
2023/04/07 11:33:54;;;;;;;16.50;11.17;;;11.30;99.90;;;;;;5052306;28;20975;-78
2023/04/07 11:36:28;;;;;;;11.27;6.53;;;11.40;99.90;;;;;;5052930;28;20451;-78
2023/04/07 11:38:56;;;;;;;14.93;8.83;;;11.30;99.90;;;;;;5052908;28;20470;-78
2023/04/07 11:41:24;;;;;;;17.20;9.95;;;11.30;99.90;;;;;;5052283;28;20888;-78
2023/04/07 11:44:08;;;;;;;20.07;9.03;;;11.30;99.90;;;;;;5052893;28;20203;-78
2023/04/07 11:46:35;;;;;;;13.63;6.27;;;11.20;99.90;;;;;;5052907;28;20451;-78
2023/04/07 11:49:11;;;;;;;16.73;8.70;;;10.80;99.90;;;;;;5052718;28;20500;-78
2023/04/07 11:51:38;;;;;;;11.50;6.47;;;10.60;99.90;;;;;;5052427;28;20498;-78
2023/04/07 11:54:10;;;;;;;18.23;11.40;;;10.70;99.90;;;;;;5052411;28;20452;-82
2023/04/07 11:56:44;;;;;;;15.20;10.83;;;10.60;99.90;;;;;;5034884;28;20493;-79
2023/04/07 11:59:21;;;;;;;25.20;13.80;;;10.40;99.90;;;;;;5052508;28;20477;-78
2023/04/07 12:01:50;;;;;;;20.50;15.57;;;10.30;99.90;;;;;;5052266;28;21020;-78
2023/04/07 12:04:19;;;;;;;23.27;20.67;;;10.30;99.90;;;;;;5051787;28;20653;-78
2023/04/07 12:06:47;;;;;;;21.00;12.97;;;10.50;99.90;;;;;;5052392;28;20509;-78
2023/04/07 12:09:31;;;;;;;23.23;18.93;;;10.60;99.90;;;;;;5052008;28;20471;-78
2023/04/07 12:11:58;;;;;;;20.83;15.50;;;10.60;99.90;;;;;;5052134;28;20947;-78
2023/04/07 12:14:26;;;;;;;24.50;16.97;;;10.70;99.90;;;;;;5051792;28;20461;-78
2023/04/07 12:16:56;;;;;;;23.13;15.87;;;10.80;99.90;;;;;;5051874;28;20451;-78
2023/04/07 12:19:25;;;;;;;25.57;18.00;;;10.80;99.90;;;;;;5051840;28;20529;-78
2023/04/07 12:21:52;;;;;;;22.57;15.57;;;10.70;99.90;;;;;;5052221;28;20455;-78
2023/04/07 12:24:19;;;;;;;20.20;14.20;;;10.70;99.90;;;;;;5051643;28;20471;-78
2023/04/07 12:26:46;;;;;;;15.20;12.53;;;10.60;99.90;;;;;;5051885;28;20451;-78